createdAt,value
2023-05-14T00:01:36.397Z,9.17
2023-05-14T00:04:04.014Z,10.03
2023-05-14T00:06:31.146Z,9.73
2023-05-14T00:08:58.509Z,9.80
2023-05-14T00:11:26.038Z,10.73
2023-05-14T00:13:53.412Z,11.20
2023-05-14T00:16:20.450Z,9.60
2023-05-14T00:18:47.426Z,12.07
2023-05-14T00:21:14.273Z,11.60
2023-05-14T00:23:41.481Z,10.80
2023-05-14T00:26:08.632Z,9.70
2023-05-14T00:28:35.881Z,10.23
2023-05-14T00:31:02.749Z,10.67
2023-05-14T00:33:30.083Z,11.20
2023-05-14T00:35:57.654Z,11.03
2023-05-14T00:38:28.083Z,10.13
2023-05-14T00:40:55.007Z,9.90
2023-05-14T00:43:22.789Z,8.57
2023-05-14T00:45:53.606Z,10.70
2023-05-14T00:48:21.026Z,10.30
2023-05-14T00:50:48.472Z,10.20
2023-05-14T00:53:15.663Z,10.30
2023-05-14T00:55:43.116Z,10.57
2023-05-14T00:58:13.919Z,11.77
2023-05-14T01:00:41.413Z,11.73
2023-05-14T01:03:08.757Z,10.40
2023-05-14T01:05:51.767Z,10.20
2023-05-14T01:08:25.784Z,10.33
2023-05-14T01:10:53.633Z,10.30
2023-05-14T01:13:28.843Z,10.20
2023-05-14T01:15:58.995Z,10.97
2023-05-14T01:18:26.520Z,10.60
2023-05-14T01:20:53.916Z,10.43
2023-05-14T01:23:21.386Z,11.17
2023-05-14T01:25:48.698Z,11.93
2023-05-14T01:28:18.032Z,10.23
2023-05-14T01:30:58.633Z,10.83
2023-05-14T01:33:26.562Z,10.77
2023-05-14T01:35:53.788Z,12.03
2023-05-14T01:38:21.033Z,11.33
2023-05-14T01:40:48.357Z,11.30
2023-05-14T01:43:15.925Z,11.17
2023-05-14T01:45:43.236Z,11.13
2023-05-14T01:48:10.900Z,11.17
2023-05-14T01:50:38.061Z,11.17
2023-05-14T01:53:05.658Z,10.07
2023-05-14T01:55:32.823Z,11.20
2023-05-14T01:57:59.857Z,11.20
2023-05-14T02:00:27.150Z,10.80
2023-05-14T02:02:53.965Z,12.23
2023-05-14T02:05:21.679Z,11.20
2023-05-14T02:07:49.223Z,12.00
2023-05-14T02:10:16.034Z,11.33
2023-05-14T02:12:42.895Z,11.90
2023-05-14T02:15:11.132Z,11.80
2023-05-14T02:17:38.509Z,11.97
2023-05-14T02:20:05.960Z,10.93
2023-05-14T02:22:33.332Z,11.43
2023-05-14T02:25:01.118Z,11.07
2023-05-14T02:27:28.409Z,11.70
2023-05-14T02:30:00.845Z,11.80
2023-05-14T02:32:28.649Z,10.83
2023-05-14T02:34:55.718Z,11.57
2023-05-14T02:37:23.058Z,12.10
2023-05-14T02:39:50.347Z,11.13
2023-05-14T02:42:17.513Z,10.80
2023-05-14T02:44:44.371Z,11.20
2023-05-14T02:47:11.162Z,11.70
2023-05-14T02:49:38.195Z,11.30
2023-05-14T02:52:05.763Z,16.43
2023-05-14T02:54:32.633Z,10.30
2023-05-14T02:56:59.952Z,11.80
2023-05-14T02:59:27.241Z,11.87
2023-05-14T03:01:54.412Z,11.60
2023-05-14T03:04:21.637Z,11.57
2023-05-14T03:06:48.831Z,11.87
2023-05-14T03:09:16.260Z,11.80
2023-05-14T03:11:43.082Z,11.70
2023-05-14T03:14:10.039Z,13.17
2023-05-14T03:16:36.863Z,12.13
2023-05-14T03:19:04.165Z,11.50
2023-05-14T03:21:32.194Z,12.57
2023-05-14T03:23:58.941Z,11.80
2023-05-14T03:26:27.023Z,11.30
2023-05-14T03:28:54.358Z,10.33
2023-05-14T03:31:21.170Z,10.47
2023-05-14T03:33:48.037Z,11.13
2023-05-14T03:36:14.977Z,12.40
2023-05-14T03:38:41.729Z,11.70
2023-05-14T03:41:08.968Z,11.63
2023-05-14T03:43:36.183Z,11.83
2023-05-14T03:46:03.162Z,11.53
2023-05-14T03:48:30.449Z,12.83
2023-05-14T03:50:57.960Z,11.30
2023-05-14T03:53:25.208Z,12.30
2023-05-14T03:55:52.698Z,11.27
2023-05-14T03:58:19.877Z,11.37
2023-05-14T04:00:47.209Z,11.40
2023-05-14T04:03:14.851Z,11.13
2023-05-14T04:05:42.168Z,12.00
2023-05-14T04:08:09.417Z,11.00
2023-05-14T04:10:36.816Z,11.90
2023-05-14T04:13:04.160Z,12.17
2023-05-14T04:15:31.031Z,11.67
2023-05-14T04:17:58.104Z,12.50
2023-05-14T04:20:25.213Z,11.33
2023-05-14T04:22:52.533Z,11.60
2023-05-14T04:25:19.993Z,13.53
2023-05-14T04:27:46.885Z,13.10
2023-05-14T04:30:14.319Z,11.10
2023-05-14T04:32:41.634Z,12.63
2023-05-14T04:35:10.358Z,12.93
2023-05-14T04:37:37.639Z,13.47
2023-05-14T04:40:06.023Z,12.80
2023-05-14T04:42:33.361Z,12.73
2023-05-14T04:45:01.125Z,12.80
2023-05-14T04:47:28.312Z,13.00
2023-05-14T04:49:55.736Z,13.17
2023-05-14T04:52:22.777Z,12.50
2023-05-14T04:54:50.134Z,12.53
2023-05-14T04:57:17.409Z,13.40
2023-05-14T04:59:44.188Z,11.60
2023-05-14T05:02:11.436Z,13.83
2023-05-14T05:04:39.196Z,13.60
2023-05-14T05:07:06.420Z,12.70
2023-05-14T05:09:33.826Z,12.70
2023-05-14T05:12:01.649Z,11.20
2023-05-14T05:14:29.054Z,12.50
2023-05-14T05:16:56.345Z,11.90
2023-05-14T05:19:35.674Z,10.57
2023-05-14T05:22:07.237Z,11.73
2023-05-14T05:24:34.594Z,11.83
2023-05-14T05:27:01.956Z,10.90
2023-05-14T05:29:28.836Z,13.50
2023-05-14T05:31:56.174Z,12.10
2023-05-14T05:34:23.004Z,11.30
2023-05-14T05:36:50.198Z,10.67
2023-05-14T05:39:17.597Z,11.20
2023-05-14T05:41:44.856Z,10.83
2023-05-14T05:44:11.673Z,10.43
2023-05-14T05:46:41.636Z,13.00
2023-05-14T05:49:09.095Z,10.97
2023-05-14T05:51:36.603Z,10.50
2023-05-14T05:54:03.946Z,11.00
2023-05-14T05:56:31.450Z,11.27
2023-05-14T05:58:58.697Z,10.40
2023-05-14T06:01:26.887Z,10.63
2023-05-14T06:03:54.300Z,11.43
2023-05-14T06:06:22.163Z,10.80
2023-05-14T06:08:49.311Z,11.07
2023-05-14T06:11:17.153Z,11.00
2023-05-14T06:13:44.534Z,9.27
2023-05-14T06:16:11.354Z,10.60
2023-05-14T06:18:38.160Z,10.83
2023-05-14T06:21:07.038Z,10.67
2023-05-14T06:23:34.203Z,9.63
2023-05-14T06:26:01.533Z,10.77
2023-05-14T06:28:28.573Z,9.80
2023-05-14T06:30:56.086Z,9.80
2023-05-14T06:33:29.872Z,10.70
2023-05-14T06:36:00.956Z,10.23
2023-05-14T06:38:27.896Z,10.70
2023-05-14T06:40:55.265Z,11.47
2023-05-14T06:43:22.747Z,10.87
2023-05-14T06:45:50.597Z,9.43
2023-05-14T06:48:21.296Z,9.60
2023-05-14T06:50:48.807Z,10.13
2023-05-14T06:53:16.358Z,8.93
2023-05-14T06:55:43.738Z,10.60
2023-05-14T06:58:10.926Z,9.03
2023-05-14T07:00:38.274Z,11.80
2023-05-14T07:03:08.814Z,10.53
2023-05-14T07:05:36.121Z,10.20
2023-05-14T07:08:03.379Z,9.60
2023-05-14T07:10:31.250Z,9.83
2023-05-14T07:12:58.426Z,9.77
2023-05-14T07:15:25.857Z,10.33
2023-05-14T07:17:53.288Z,9.30
2023-05-14T07:20:20.400Z,11.00
2023-05-14T07:22:47.333Z,10.27
2023-05-14T07:25:14.157Z,9.70
2023-05-14T07:27:41.356Z,9.80
2023-05-14T07:30:08.720Z,9.77
2023-05-14T07:32:35.568Z,11.03
2023-05-14T07:35:02.369Z,10.60
2023-05-14T07:37:29.263Z,10.23
2023-05-14T07:39:56.495Z,10.17
2023-05-14T07:42:34.967Z,9.33
2023-05-14T07:45:03.743Z,9.27
2023-05-14T07:47:30.737Z,11.07
2023-05-14T07:49:57.888Z,9.90
2023-05-14T07:52:25.051Z,11.17
2023-05-14T07:54:52.187Z,10.73
2023-05-14T07:57:19.842Z,11.13
2023-05-14T07:59:47.614Z,10.77
2023-05-14T08:02:16.429Z,10.70
2023-05-14T08:04:43.579Z,11.43
2023-05-14T08:07:10.498Z,14.13
2023-05-14T08:09:37.368Z,10.63
2023-05-14T08:12:04.505Z,10.83
2023-05-14T08:14:31.468Z,11.40
2023-05-14T08:16:58.351Z,10.10
2023-05-14T08:19:27.343Z,8.80
2023-05-14T08:21:54.438Z,10.33
2023-05-14T08:24:21.469Z,9.63
2023-05-14T08:26:48.853Z,9.90
2023-05-14T08:32:22.075Z,8.53
2023-05-14T08:34:56.359Z,8.43
2023-05-14T08:37:28.628Z,12.30
2023-05-14T08:40:16.645Z,6.93
2023-05-14T08:42:49.287Z,7.13
2023-05-14T08:48:43.374Z,7.43
2023-05-14T08:51:26.323Z,8.23
2023-05-14T08:56:51.881Z,7.23
2023-05-14T09:02:10.881Z,6.60
2023-05-14T09:04:40.578Z,6.27
2023-05-14T09:07:20.313Z,7.60
2023-05-14T09:13:19.343Z,5.97
2023-05-14T09:29:27.507Z,6.00
2023-05-14T09:31:56.124Z,6.77
2023-05-14T09:37:20.851Z,6.83
2023-05-14T09:40:14.704Z,7.03
2023-05-14T09:42:46.650Z,6.60
2023-05-14T09:48:30.062Z,4.90
2023-05-14T09:51:10.907Z,7.03
2023-05-14T09:53:47.483Z,5.43
2023-05-14T10:02:03.064Z,6.93
2023-05-14T10:04:53.781Z,6.83
2023-05-14T10:07:57.369Z,6.70
2023-05-14T10:28:23.878Z,5.20
2023-05-14T10:34:47.499Z,5.20
2023-05-14T10:43:43.123Z,4.83
2023-05-14T10:46:14.825Z,4.70
2023-05-14T10:51:55.964Z,4.67
2023-05-14T10:54:45.505Z,4.93
2023-05-14T11:03:19.037Z,4.73
2023-05-14T11:12:20.305Z,4.90
2023-05-14T11:14:48.768Z,4.67
2023-05-14T11:17:20.162Z,4.27
2023-05-14T11:22:58.366Z,3.97
2023-05-14T11:25:26.703Z,4.20
2023-05-14T11:27:58.499Z,4.53
2023-05-14T11:30:26.028Z,3.80
2023-05-14T11:32:54.512Z,4.83
2023-05-14T11:35:21.829Z,3.50
2023-05-14T11:37:54.259Z,3.73
2023-05-14T11:40:21.872Z,4.83
2023-05-14T11:42:51.480Z,4.20
2023-05-14T11:45:26.096Z,3.57
2023-05-14T11:47:54.233Z,4.00
2023-05-14T11:50:22.489Z,3.90
2023-05-14T11:52:50.995Z,4.37
2023-05-14T11:55:18.268Z,3.67
2023-05-14T11:57:45.518Z,3.50
2023-05-14T12:00:21.555Z,4.20
2023-05-14T12:02:52.452Z,4.73
2023-05-14T12:05:19.573Z,4.13
2023-05-14T12:07:46.912Z,3.50
2023-05-14T12:10:14.113Z,4.30
2023-05-14T12:12:41.416Z,4.43
2023-05-14T12:15:14.772Z,4.60
2023-05-14T12:17:41.667Z,3.77
2023-05-14T12:20:10.481Z,3.60
2023-05-14T12:22:37.291Z,3.90
2023-05-14T12:25:04.616Z,3.83
2023-05-14T12:27:31.941Z,3.00
2023-05-14T12:32:42.050Z,3.37
2023-05-14T12:35:09.634Z,4.20
2023-05-14T12:37:37.777Z,4.20
2023-05-14T12:40:09.257Z,3.90
2023-05-14T12:42:36.577Z,4.00
2023-05-14T12:45:07.193Z,3.70
2023-05-14T12:47:34.186Z,4.00
2023-05-14T12:50:01.002Z,3.37
2023-05-14T12:52:37.583Z,3.73
2023-05-14T12:55:09.614Z,3.57
2023-05-14T12:57:38.324Z,3.50
2023-05-14T13:00:12.990Z,3.87
2023-05-14T13:02:42.070Z,3.10
2023-05-14T13:05:10.888Z,3.40
2023-05-14T13:07:37.769Z,3.53
2023-05-14T13:10:08.179Z,3.40
2023-05-14T13:12:35.099Z,3.30
2023-05-14T13:15:02.473Z,3.60
2023-05-14T13:17:29.274Z,3.87
2023-05-14T13:19:56.540Z,3.67
2023-05-14T13:22:23.225Z,4.07
2023-05-14T13:24:51.994Z,4.00
2023-05-14T13:27:18.844Z,3.20
2023-05-14T13:29:45.646Z,3.10
2023-05-14T13:32:12.436Z,3.20
2023-05-14T13:34:39.342Z,3.67
2023-05-14T13:37:06.132Z,3.40
2023-05-14T13:39:32.933Z,3.83
2023-05-14T13:41:59.844Z,3.43
2023-05-14T13:44:27.037Z,3.83
2023-05-14T13:46:53.966Z,4.73
2023-05-14T13:49:21.311Z,3.90
2023-05-14T13:51:48.698Z,3.57
2023-05-14T13:54:15.605Z,5.23
2023-05-14T13:56:42.465Z,4.10
2023-05-14T13:59:09.332Z,5.00
2023-05-14T14:01:36.568Z,4.10
2023-05-14T14:04:03.786Z,3.50
2023-05-14T14:06:31.387Z,3.90
2023-05-14T14:08:58.584Z,3.53
2023-05-14T14:11:25.778Z,4.03
2023-05-14T14:13:52.705Z,4.50
2023-05-14T14:16:20.096Z,4.30
2023-05-14T14:18:47.071Z,3.90
2023-05-14T14:21:14.342Z,3.60
2023-05-14T14:23:41.708Z,4.10
2023-05-14T14:26:08.417Z,4.40
2023-05-14T14:28:35.366Z,3.50
2023-05-14T14:31:02.329Z,3.47
2023-05-14T14:33:29.511Z,3.80
2023-05-14T14:35:56.769Z,3.50
2023-05-14T14:38:24.437Z,3.53
2023-05-14T14:40:51.435Z,3.13
2023-05-14T14:43:18.832Z,3.57
2023-05-14T14:45:48.235Z,3.87
2023-05-14T14:48:26.591Z,2.97
2023-05-14T14:50:53.912Z,3.57
2023-05-14T14:53:21.396Z,3.80
2023-05-14T14:55:49.009Z,3.77
2023-05-14T14:58:15.843Z,3.20
2023-05-14T15:00:43.087Z,3.10
2023-05-14T15:03:10.616Z,2.53
2023-05-14T15:05:37.740Z,3.63
2023-05-14T15:08:05.151Z,2.70
2023-05-14T15:10:32.162Z,3.93
2023-05-14T15:12:59.328Z,2.53
2023-05-14T15:15:26.719Z,2.27
2023-05-14T15:17:53.589Z,2.77
2023-05-14T15:20:20.355Z,2.50
2023-05-14T15:22:47.195Z,2.53
2023-05-14T15:25:14.302Z,2.63
2023-05-14T15:27:41.688Z,1.50
2023-05-14T15:30:08.956Z,2.80
2023-05-14T15:32:35.757Z,1.00
2023-05-14T15:35:02.610Z,1.70
2023-05-14T15:37:37.802Z,1.70
2023-05-14T15:40:07.951Z,2.40
2023-05-14T15:42:45.025Z,1.70
2023-05-14T15:45:12.725Z,2.07
2023-05-14T15:47:40.246Z,2.23
2023-05-14T15:50:07.853Z,2.03
2023-05-14T15:52:35.811Z,2.20
2023-05-14T15:55:03.114Z,2.70
2023-05-14T15:57:29.959Z,3.60
2023-05-14T15:59:56.914Z,3.50
2023-05-14T16:02:23.743Z,2.70
2023-05-14T16:04:50.583Z,2.30
2023-05-14T16:07:17.495Z,1.63
2023-05-14T16:09:44.428Z,1.83
2023-05-14T16:12:12.460Z,1.90
2023-05-14T16:14:41.833Z,1.97
2023-05-14T16:17:09.134Z,2.10
2023-05-14T16:19:35.882Z,1.70
2023-05-14T16:22:03.165Z,1.83
2023-05-14T16:24:30.028Z,1.90
2023-05-14T16:26:56.799Z,1.93
2023-05-14T16:29:23.756Z,1.80
2023-05-14T16:31:50.694Z,1.93
2023-05-14T16:34:18.046Z,1.90
2023-05-14T16:36:45.452Z,1.87
2023-05-14T16:39:12.745Z,1.60
2023-05-14T16:52:47.814Z,2.70
2023-05-14T16:58:33.042Z,3.13
2023-05-14T17:04:07.888Z,2.40
2023-05-14T17:06:36.630Z,3.17
2023-05-14T17:09:06.983Z,2.90
2023-05-14T17:11:36.464Z,2.47
2023-05-14T17:14:10.928Z,2.63
2023-05-14T17:16:46.651Z,2.53
2023-05-14T17:19:15.460Z,2.30
2023-05-14T17:21:43.477Z,2.67
2023-05-14T17:26:51.908Z,3.37
2023-05-14T17:29:19.314Z,2.83
2023-05-14T17:31:47.005Z,2.80
2023-05-14T17:34:15.818Z,3.37
2023-05-14T17:36:43.199Z,3.20
2023-05-14T17:39:12.852Z,5.20
2023-05-14T17:41:43.314Z,4.00
2023-05-14T17:44:12.095Z,5.10
2023-05-14T17:46:39.926Z,3.70
2023-05-14T17:49:12.724Z,3.27
2023-05-14T17:51:39.699Z,3.13
2023-05-14T17:54:06.885Z,2.10
2023-05-14T17:56:34.689Z,2.87
2023-05-14T17:59:02.287Z,2.63
2023-05-14T18:01:31.191Z,2.40
2023-05-14T18:03:58.256Z,2.70
2023-05-14T18:06:26.874Z,2.30
2023-05-14T18:08:53.760Z,2.80
2023-05-14T18:11:23.284Z,2.60
2023-05-14T18:13:50.607Z,2.57
2023-05-14T18:16:18.625Z,3.07
2023-05-14T18:18:51.398Z,3.30
2023-05-14T18:21:30.809Z,2.90
2023-05-14T18:23:57.974Z,3.60
2023-05-14T18:26:25.706Z,2.33
2023-05-14T18:28:54.802Z,13.23
2023-05-14T18:31:24.375Z,8.67
2023-05-14T18:33:52.702Z,6.83
2023-05-14T18:36:20.955Z,4.60
2023-05-14T18:38:47.857Z,1.87
2023-05-14T18:41:14.779Z,2.17
2023-05-14T18:43:41.688Z,2.43
2023-05-14T18:46:08.524Z,3.53
2023-05-14T18:48:35.465Z,2.37
2023-05-14T18:51:02.536Z,2.40
2023-05-14T18:53:29.811Z,2.30
2023-05-14T18:55:57.110Z,2.73
2023-05-14T18:58:27.475Z,2.80
2023-05-14T19:00:57.812Z,2.80
2023-05-14T19:03:28.580Z,3.60
2023-05-14T19:05:56.047Z,5.57
2023-05-14T19:08:22.976Z,5.40
2023-05-14T19:10:49.870Z,3.23
2023-05-14T19:13:17.182Z,3.27
2023-05-14T19:15:44.389Z,2.77
2023-05-14T19:18:13.023Z,3.17
2023-05-14T19:20:39.910Z,2.50
2023-05-14T19:23:06.885Z,3.97
2023-05-14T19:25:34.227Z,4.53
2023-05-14T19:28:03.652Z,2.70
2023-05-14T19:30:31.099Z,3.30
2023-05-14T19:32:57.858Z,2.60
2023-05-14T19:35:24.805Z,2.30
2023-05-14T19:37:51.885Z,2.90
2023-05-14T19:40:18.956Z,3.10
2023-05-14T19:42:45.841Z,2.60
2023-05-14T19:45:12.736Z,2.80
2023-05-14T19:47:40.164Z,2.50
2023-05-14T19:50:08.743Z,2.73
2023-05-14T19:52:35.522Z,3.40
2023-05-14T19:55:02.312Z,2.97
2023-05-14T19:57:29.428Z,5.20
2023-05-14T19:59:56.407Z,4.97
2023-05-14T20:02:23.404Z,6.17
2023-05-14T20:04:50.385Z,3.73
2023-05-14T20:07:17.381Z,3.60
2023-05-14T20:09:44.405Z,3.30
2023-05-14T20:12:12.983Z,3.60
2023-05-14T20:14:42.970Z,2.93
2023-05-14T20:17:10.100Z,2.93
2023-05-14T20:19:36.994Z,3.73
2023-05-14T20:22:03.829Z,3.10
2023-05-14T20:24:30.732Z,3.70
2023-05-14T20:26:57.606Z,3.57
2023-05-14T20:29:24.553Z,3.20
2023-05-14T20:31:51.505Z,3.93
2023-05-14T20:34:19.202Z,5.10
2023-05-14T20:36:46.356Z,5.00
2023-05-14T20:39:14.240Z,5.10
2023-05-14T20:41:41.180Z,4.60
2023-05-14T20:44:08.464Z,5.80
2023-05-14T20:46:35.429Z,6.80
2023-05-14T20:49:02.474Z,5.97
2023-05-14T20:51:29.773Z,5.70
2023-05-14T20:53:56.550Z,6.23
2023-05-14T20:56:23.411Z,7.00
2023-05-14T20:58:50.118Z,6.10
2023-05-14T21:01:17.030Z,5.70
2023-05-14T21:03:43.956Z,6.67
2023-05-14T21:06:11.465Z,5.37
2023-05-14T21:08:40.361Z,5.97
2023-05-14T21:11:07.229Z,6.83
2023-05-14T21:13:33.949Z,6.20
2023-05-14T21:16:01.022Z,7.10
2023-05-14T21:18:30.946Z,6.33
2023-05-14T21:20:57.982Z,6.00
2023-05-14T21:23:25.440Z,8.60
2023-05-14T21:25:54.739Z,7.97
2023-05-14T21:28:24.518Z,7.17
2023-05-14T21:30:53.236Z,6.13
2023-05-14T21:33:21.089Z,6.23
2023-05-14T21:35:48.355Z,8.40
2023-05-14T21:38:15.159Z,6.00
2023-05-14T21:40:45.352Z,7.30
2023-05-14T21:43:12.341Z,8.30
2023-05-14T21:45:39.105Z,6.73
2023-05-14T21:48:05.984Z,6.70
2023-05-14T21:50:33.443Z,7.70
2023-05-14T21:53:00.352Z,7.33
2023-05-14T21:55:28.117Z,6.47
2023-05-14T21:57:55.029Z,6.80
2023-05-14T22:00:25.191Z,7.03
2023-05-14T22:02:55.415Z,7.50
2023-05-14T22:05:22.512Z,6.87
2023-05-14T22:07:49.484Z,6.80
2023-05-14T22:10:16.931Z,7.13
2023-05-14T22:12:44.277Z,5.90
2023-05-14T22:15:11.586Z,6.20
2023-05-14T22:17:38.684Z,5.60
2023-05-14T22:20:10.612Z,6.47
2023-05-14T22:22:37.432Z,5.70
2023-05-14T22:25:04.774Z,6.53
2023-05-14T22:27:31.766Z,6.27
2023-05-14T22:29:58.827Z,6.20
2023-05-14T22:32:25.992Z,7.13
2023-05-14T22:34:53.325Z,8.10
2023-05-14T22:37:20.107Z,6.47
2023-05-14T22:39:47.420Z,5.63
2023-05-14T22:42:14.485Z,5.43
2023-05-14T22:44:41.314Z,5.57
2023-05-14T22:47:08.038Z,4.80
2023-05-14T22:49:35.304Z,4.47
2023-05-14T22:52:04.893Z,5.23
2023-05-14T22:54:32.491Z,6.40
2023-05-14T22:56:59.727Z,5.63
2023-05-14T22:59:26.684Z,5.43
2023-05-14T23:01:54.176Z,4.87
2023-05-14T23:04:21.614Z,6.80
2023-05-14T23:06:49.030Z,5.13
2023-05-14T23:09:15.973Z,5.60
2023-05-14T23:11:43.438Z,5.63
2023-05-14T23:14:10.378Z,4.70
2023-05-14T23:16:37.216Z,5.00
2023-05-14T23:19:04.645Z,5.50
2023-05-14T23:21:32.044Z,4.80
2023-05-14T23:23:59.551Z,4.67
2023-05-14T23:26:26.429Z,5.23
2023-05-14T23:28:53.796Z,4.43
2023-05-14T23:31:21.160Z,4.77
2023-05-14T23:33:47.941Z,4.00
2023-05-14T23:36:14.934Z,4.10
2023-05-14T23:38:41.786Z,5.07
2023-05-14T23:41:08.547Z,5.20
2023-05-14T23:43:35.741Z,7.23
2023-05-14T23:46:02.587Z,5.57
2023-05-14T23:48:29.617Z,5.40
2023-05-14T23:50:56.443Z,5.43
2023-05-14T23:53:23.312Z,5.10
2023-05-14T23:55:50.061Z,5.20
2023-05-14T23:58:16.822Z,4.93
